Impacts METAR Board
IDs:

KGTR - Golden Triangle Arpt, MS, US

Updated at: 1300 UTC 16 Aug 2022
Potential Impact None Slight Moderate High
Time 16/01Z 16/02Z 16/03Z 16/04Z 16/05Z 16/06Z 16/07Z 16/08Z 16/09Z 16/10Z 16/11Z 16/12Z 16/13Z
Temp85 69 69 73
Dewpt75 68 68 70
Altim29.88 29.92 29.93 29.96
VIS10 10 10 10
CIG-- -- -- --
CoverCLRCLRCLRCLR
FltCatVFRVFRVFRVFR
WX--------
WDir903300360
WSpd3 3 0 7
WGst-- -- -- --
Raw hourly METARs
KGTR 160056Z AUTO 09003KT 10SM CLR 29/24 A2988 RMK AO2 LTG DSNT E SLP124 T02940239 PNO $









KGTR 161056Z 33003KT 10SM CLR 21/20 A2992 RMK AO2 SLPNO T02060200
KGTR 161156Z 00000KT 10SM CLR 21/20 A2993 RMK AO2 SLPNO 6//// 7//// T02060200
KGTR 161256Z 36007KT 10SM CLR 23/21 A2996 RMK AO2 SLPNO T02280211



Page loaded:  13:35 UTC  |   06:35 AM Pacific  |   07:35 AM Mountain  |   08:35 AM Central  |   09:35 AM Eastern

 

ADVISORIES

FORECASTS

FORECASTS

OBSERVATIONS

USER TOOLS

ABOUT US